createdAt,value
2018-11-12T00:00:43.177Z,14.00
2018-11-12T00:03:12.558Z,13.90
2018-11-12T00:05:41.837Z,13.80
2018-11-12T00:08:11.097Z,13.90
2018-11-12T00:10:40.437Z,13.80
2018-11-12T00:13:09.756Z,13.90
2018-11-12T00:15:39.057Z,13.80
2018-11-12T00:18:08.437Z,13.90
2018-11-12T00:20:37.797Z,13.90
2018-11-12T00:23:07.177Z,13.90
2018-11-12T00:25:36.437Z,14.00
2018-11-12T00:28:06.477Z,14.10
2018-11-12T00:30:35.797Z,14.10
2018-11-12T00:33:05.196Z,14.00
2018-11-12T00:35:34.556Z,14.00
2018-11-12T00:38:04.137Z,14.00
2018-11-12T00:40:33.423Z,14.00
2018-11-12T00:43:02.816Z,14.00
2018-11-12T00:45:32.101Z,13.90
2018-11-12T00:48:01.437Z,13.90
2018-11-12T00:50:30.685Z,13.80
2018-11-12T00:52:59.936Z,13.80
2018-11-12T00:55:29.657Z,13.80
2018-11-12T00:57:59.057Z,13.80
2018-11-12T01:00:28.416Z,13.70
2018-11-12T01:02:57.717Z,13.80
2018-11-12T01:05:27.057Z,13.70
2018-11-12T01:07:56.360Z,13.80
2018-11-12T01:10:25.661Z,13.60
2018-11-12T01:12:55.225Z,13.70
2018-11-12T01:15:24.617Z,13.70
2018-11-12T01:17:53.937Z,13.60
2018-11-12T01:20:23.197Z,13.60
2018-11-12T01:22:52.497Z,13.60
2018-11-12T01:25:21.697Z,13.70
2018-11-12T01:27:50.979Z,13.70
2018-11-12T01:30:20.259Z,13.70
2018-11-12T01:32:49.896Z,13.70
2018-11-12T01:35:19.277Z,13.70
2018-11-12T01:37:48.599Z,13.80
2018-11-12T01:40:17.896Z,13.70
2018-11-12T01:42:47.197Z,13.70
2018-11-12T01:45:18.041Z,13.70
2018-11-12T01:47:48.418Z,13.70
2018-11-12T01:50:18.438Z,13.70
2018-11-12T01:52:48.437Z,13.70
2018-11-12T01:55:19.159Z,13.90
2018-11-12T01:57:48.436Z,13.80
2018-11-12T02:00:21.217Z,13.70
2018-11-12T02:02:51.617Z,13.80
2018-11-12T02:05:21.116Z,13.70
2018-11-12T02:07:50.436Z,13.70
2018-11-12T02:10:19.900Z,13.80
2018-11-12T02:12:49.156Z,13.70
2018-11-12T02:15:20.078Z,13.70
2018-11-12T02:17:50.197Z,13.60
2018-11-12T02:20:20.602Z,13.60
2018-11-12T02:22:50.438Z,13.60
2018-11-12T02:25:20.361Z,13.50
2018-11-12T02:27:49.901Z,13.70
2018-11-12T02:30:25.239Z,13.70
2018-11-12T02:32:54.788Z,13.50
2018-11-12T02:35:24.176Z,13.50
2018-11-12T02:37:53.456Z,13.50
2018-11-12T02:40:22.664Z,13.60
2018-11-12T02:42:52.019Z,13.60
2018-11-12T02:45:21.358Z,13.60
2018-11-12T02:47:50.656Z,13.60
2018-11-12T02:50:19.917Z,13.50
2018-11-12T02:52:49.220Z,13.50
2018-11-12T02:55:18.558Z,13.60
2018-11-12T02:57:47.916Z,13.60
2018-11-12T03:00:21.037Z,13.40
2018-11-12T03:02:50.596Z,13.60
2018-11-12T03:05:19.844Z,13.70
2018-11-12T03:07:49.142Z,13.80
2018-11-12T03:10:20.477Z,13.50
2018-11-12T03:12:49.849Z,13.50
2018-11-12T03:15:20.017Z,13.70
2018-11-12T03:17:50.459Z,13.70
2018-11-12T03:20:21.086Z,13.50
2018-11-12T03:22:50.431Z,13.50
2018-11-12T03:25:20.759Z,13.50
2018-11-12T03:27:50.233Z,13.50
2018-11-12T03:30:20.808Z,13.60
2018-11-12T03:32:51.117Z,13.60
2018-11-12T03:35:20.441Z,13.60
2018-11-12T03:37:50.756Z,13.60
2018-11-12T03:40:22.737Z,13.60
2018-11-12T03:42:52.816Z,13.60
2018-11-12T03:45:23.656Z,13.50
2018-11-12T03:47:59.757Z,13.60
2018-11-12T03:50:29.017Z,13.50
2018-11-12T03:52:58.497Z,13.60
2018-11-12T03:55:27.837Z,13.60
2018-11-12T03:57:57.077Z,13.60
2018-11-12T04:00:32.577Z,13.50
2018-11-12T04:03:01.856Z,13.40
2018-11-12T04:05:31.218Z,13.60
2018-11-12T04:08:00.520Z,13.50
2018-11-12T04:10:29.857Z,13.50
2018-11-12T04:12:59.157Z,13.70
2018-11-12T04:15:28.436Z,13.60
2018-11-12T04:17:57.655Z,13.40
2018-11-12T04:20:27.297Z,13.50
2018-11-12T04:23:04.958Z,13.40
2018-11-12T04:25:36.156Z,13.50
2018-11-12T04:28:05.616Z,13.40
2018-11-12T04:30:35.317Z,13.20
2018-11-12T04:33:04.857Z,13.30
2018-11-12T04:35:34.117Z,13.30
2018-11-12T04:38:03.497Z,13.30
2018-11-12T04:40:32.719Z,13.40
2018-11-12T04:43:02.399Z,13.30
2018-11-12T04:45:31.658Z,13.50
2018-11-12T04:48:00.940Z,13.40
2018-11-12T04:50:30.576Z,13.50
2018-11-12T04:52:59.917Z,13.20
2018-11-12T04:55:29.424Z,13.30
2018-11-12T04:57:58.746Z,13.20
2018-11-12T05:00:28.921Z,13.40
2018-11-12T05:02:58.296Z,13.50
2018-11-12T05:05:28.416Z,13.50
2018-11-12T05:07:57.776Z,13.50
2018-11-12T05:10:27.636Z,13.40
2018-11-12T05:12:57.317Z,13.30
2018-11-12T05:15:27.157Z,13.40
2018-11-12T05:17:56.617Z,13.40
2018-11-12T05:20:28.997Z,13.40
2018-11-12T05:22:58.377Z,13.40
2018-11-12T05:25:27.677Z,13.50
2018-11-12T05:27:56.937Z,13.40
2018-11-12T05:30:28.296Z,13.40
2018-11-12T05:32:58.057Z,13.20
2018-11-12T05:35:28.457Z,13.20
2018-11-12T05:37:57.772Z,13.10
2018-11-12T05:40:28.302Z,13.10
2018-11-12T05:42:58.037Z,13.30
2018-11-12T05:45:28.417Z,13.30
2018-11-12T05:47:57.716Z,13.30
2018-11-12T05:50:28.597Z,13.40
2018-11-12T05:53:01.145Z,13.30
2018-11-12T05:55:31.101Z,13.40
2018-11-12T05:58:01.000Z,13.30
2018-11-12T06:00:35.077Z,13.30
2018-11-12T06:03:04.479Z,13.30
2018-11-12T06:05:34.523Z,13.10
2018-11-12T06:08:03.900Z,13.30
2018-11-12T06:10:34.437Z,13.20
2018-11-12T06:13:03.737Z,13.30
2018-11-12T06:15:33.044Z,13.10
2018-11-12T06:18:02.377Z,13.20
2018-11-12T06:20:32.697Z,13.00
2018-11-12T06:23:02.159Z,12.90
2018-11-12T06:25:33.058Z,12.90
2018-11-12T06:28:02.437Z,12.80
2018-11-12T06:30:33.057Z,13.00
2018-11-12T06:33:02.377Z,12.60
2018-11-12T06:35:31.977Z,12.70
2018-11-12T06:38:01.322Z,12.60
2018-11-12T06:40:30.577Z,12.60
2018-11-12T06:42:59.937Z,12.70
2018-11-12T06:45:30.380Z,12.70
2018-11-12T06:48:00.257Z,12.60
2018-11-12T06:50:32.357Z,12.50
2018-11-12T06:53:02.544Z,12.60
2018-11-12T06:55:31.797Z,12.70
2018-11-12T06:58:01.138Z,12.70
2018-11-12T07:00:32.736Z,13.10
2018-11-12T07:03:02.060Z,13.20
2018-11-12T07:05:31.798Z,13.20
2018-11-12T07:08:01.158Z,13.20
2018-11-12T07:10:30.597Z,13.40
2018-11-12T07:13:00.578Z,13.40
2018-11-12T07:15:30.097Z,13.40
2018-11-12T07:17:59.326Z,13.50
2018-11-12T07:20:29.497Z,13.30
2018-11-12T07:22:58.857Z,13.40
2018-11-12T07:25:29.422Z,13.20
2018-11-12T07:27:59.098Z,13.40
2018-11-12T07:30:28.839Z,13.30
2018-11-12T07:32:58.940Z,13.30
2018-11-12T07:35:28.417Z,13.20
2018-11-12T07:37:58.077Z,13.40
2018-11-12T07:40:27.377Z,13.30
2018-11-12T07:42:56.664Z,13.30
2018-11-12T07:45:27.397Z,13.30
2018-11-12T07:47:57.599Z,13.30
2018-11-12T07:50:28.517Z,13.30
2018-11-12T07:52:57.937Z,13.30
2018-11-12T07:55:28.137Z,13.20
2018-11-12T07:57:58.537Z,13.20
2018-11-12T08:00:29.497Z,13.30
2018-11-12T08:03:07.424Z,13.20
2018-11-12T08:05:37.237Z,13.10
2018-11-12T08:08:07.400Z,13.20
2018-11-12T08:10:36.757Z,13.10
2018-11-12T08:13:06.737Z,13.20
2018-11-12T08:15:36.057Z,13.40
2018-11-12T08:18:05.478Z,13.40
2018-11-12T08:20:34.977Z,13.50
2018-11-12T08:23:04.457Z,13.30
2018-11-12T08:25:33.797Z,13.30
2018-11-12T08:28:03.100Z,13.20
2018-11-12T08:30:32.543Z,13.20
2018-11-12T08:33:01.937Z,13.30
2018-11-12T08:35:31.300Z,13.50
2018-11-12T08:38:00.576Z,13.40
2018-11-12T08:40:30.234Z,13.50
2018-11-12T08:42:59.497Z,13.60
2018-11-12T08:45:28.797Z,13.30
2018-11-12T08:47:58.437Z,13.40
2018-11-12T08:50:28.198Z,13.30
2018-11-12T08:52:58.037Z,13.40
2018-11-12T08:55:29.118Z,13.50
2018-11-12T08:58:00.717Z,13.60
2018-11-12T09:00:30.276Z,13.40
2018-11-12T09:02:59.557Z,13.50
2018-11-12T09:05:29.859Z,13.40
2018-11-12T09:08:00.817Z,13.60
2018-11-12T09:10:31.477Z,13.70
2018-11-12T09:13:00.917Z,13.50
2018-11-12T09:15:30.293Z,13.50
2018-11-12T09:18:00.136Z,13.70
2018-11-12T09:20:29.748Z,13.70
2018-11-12T09:22:59.160Z,13.70
2018-11-12T09:25:28.841Z,13.70
2018-11-12T09:27:58.438Z,13.70
2018-11-12T09:30:28.840Z,13.80
2018-11-12T09:32:58.279Z,13.70
2018-11-12T09:35:28.987Z,13.90
2018-11-12T09:37:59.328Z,13.60
2018-11-12T09:40:35.018Z,13.70
2018-11-12T09:43:04.663Z,13.80
2018-11-12T09:45:34.198Z,13.90
2018-11-12T09:48:03.507Z,13.80
2018-11-12T09:50:32.858Z,14.00
2018-11-12T09:53:02.657Z,14.10
2018-11-12T09:55:33.077Z,14.00
2018-11-12T09:58:05.077Z,14.00
2018-11-12T10:00:34.611Z,13.90
2018-11-12T10:03:05.075Z,13.90
2018-11-12T10:05:34.772Z,13.90
2018-11-12T10:08:09.153Z,13.80
2018-11-12T10:10:45.495Z,13.80
2018-11-12T10:13:21.416Z,13.90
2018-11-12T10:15:50.273Z,13.90
2018-11-12T10:18:17.218Z,13.90
2018-11-12T10:20:46.677Z,14.00
2018-11-12T10:23:16.497Z,13.90
2018-11-12T10:25:45.896Z,13.90
2018-11-12T10:28:15.785Z,14.00
2018-11-12T10:30:45.577Z,14.00
2018-11-12T10:33:14.837Z,14.00
2018-11-12T10:35:44.077Z,14.00
2018-11-12T10:38:13.397Z,13.90
2018-11-12T10:40:43.006Z,13.90
2018-11-12T10:43:12.297Z,14.10
2018-11-12T10:45:41.577Z,14.10
2018-11-12T10:48:11.311Z,14.00
2018-11-12T10:50:40.736Z,13.90
2018-11-12T10:53:10.057Z,14.10
2018-11-12T10:55:39.537Z,14.00
2018-11-12T10:58:08.717Z,13.90
2018-11-12T11:00:43.667Z,14.00
2018-11-12T11:03:18.336Z,14.10
2018-11-12T11:05:50.217Z,14.20
2018-11-12T11:08:19.518Z,14.20
2018-11-12T11:10:48.837Z,14.10
2018-11-12T11:13:18.197Z,14.30
2018-11-12T11:15:47.538Z,14.30
2018-11-12T11:18:16.797Z,14.20
2018-11-12T11:20:46.137Z,14.20
2018-11-12T11:23:15.517Z,14.20
2018-11-12T11:25:44.861Z,14.20
2018-11-12T11:28:14.217Z,14.10
2018-11-12T11:30:43.617Z,14.20
2018-11-12T11:33:13.916Z,14.10
2018-11-12T11:35:43.237Z,14.20
2018-11-12T11:38:12.777Z,14.00
2018-11-12T11:40:42.144Z,14.10
2018-11-12T11:43:11.517Z,14.20
2018-11-12T11:45:40.899Z,14.20
2018-11-12T11:48:10.294Z,14.10
2018-11-12T11:50:39.577Z,14.10
2018-11-12T11:53:08.957Z,14.20
2018-11-12T11:55:38.337Z,14.30
2018-11-12T11:58:07.640Z,14.20
2018-11-12T12:00:36.997Z,14.30
2018-11-12T12:03:06.354Z,14.30
2018-11-12T12:05:35.697Z,14.30
2018-11-12T12:08:05.197Z,14.40
2018-11-12T12:10:34.498Z,14.50
2018-11-12T12:13:04.437Z,14.50
2018-11-12T12:15:33.877Z,14.40
2018-11-12T12:18:03.197Z,14.30
2018-11-12T12:20:33.018Z,14.40
2018-11-12T12:23:02.317Z,14.30
2018-11-12T12:25:31.635Z,14.30
2018-11-12T12:28:00.960Z,14.30
2018-11-12T12:30:30.237Z,14.30
2018-11-12T12:32:59.577Z,14.30
2018-11-12T12:35:29.115Z,14.30
2018-11-12T12:37:58.457Z,14.40
2018-11-12T12:40:28.064Z,14.30
2018-11-12T12:42:57.398Z,14.20
2018-11-12T12:45:27.589Z,14.30
2018-11-12T12:47:57.597Z,14.20
2018-11-12T12:50:26.921Z,14.20
2018-11-12T12:52:56.257Z,14.20
2018-11-12T12:55:25.639Z,14.10
2018-11-12T12:57:55.277Z,14.20
2018-11-12T13:00:26.124Z,14.20
2018-11-12T13:02:55.743Z,14.30
2018-11-12T13:05:25.404Z,14.10
2018-11-12T13:07:54.968Z,14.10
2018-11-12T13:10:25.060Z,13.80
2018-11-12T13:12:54.360Z,13.90
2018-11-12T13:15:23.679Z,14.20
2018-11-12T13:17:53.160Z,14.10
2018-11-12T13:20:23.783Z,14.20
2018-11-12T13:22:53.186Z,14.30
2018-11-12T13:25:22.527Z,14.10
2018-11-12T13:27:51.885Z,14.10
2018-11-12T13:30:22.546Z,14.20
2018-11-12T13:32:52.228Z,14.10
2018-11-12T13:35:24.134Z,13.90
2018-11-12T13:37:53.565Z,14.10
2018-11-12T13:40:24.007Z,14.10
2018-11-12T13:42:54.915Z,14.10
2018-11-12T13:45:24.935Z,14.20
2018-11-12T13:47:54.715Z,14.30
2018-11-12T13:50:25.301Z,14.20
2018-11-12T13:52:55.007Z,14.30
2018-11-12T13:55:25.196Z,14.20
2018-11-12T13:57:54.576Z,14.20
2018-11-12T14:00:25.165Z,14.20
2018-11-12T14:02:55.139Z,14.20
2018-11-12T14:05:25.522Z,14.30
2018-11-12T14:07:54.796Z,14.30
2018-11-12T14:10:25.776Z,14.30
2018-11-12T14:12:56.416Z,14.20
2018-11-12T14:15:26.096Z,14.20
2018-11-12T14:17:55.935Z,14.10
2018-11-12T14:20:26.077Z,14.30
2018-11-12T14:22:55.415Z,14.10
2018-11-12T14:25:25.556Z,14.20
2018-11-12T14:27:56.010Z,14.20
2018-11-12T14:30:28.601Z,14.20
2018-11-12T14:32:58.182Z,14.30
2018-11-12T14:35:28.217Z,14.10
2018-11-12T14:37:57.424Z,14.10
2018-11-12T14:40:26.724Z,14.00
2018-11-12T14:42:55.844Z,14.10
2018-11-12T14:45:25.695Z,14.20
2018-11-12T14:47:54.684Z,14.10
2018-11-12T14:50:23.984Z,14.20
2018-11-12T14:52:53.306Z,14.10
2018-11-12T14:55:22.625Z,14.10
2018-11-12T14:57:51.905Z,13.90
2018-11-12T15:00:24.760Z,14.00
2018-11-12T15:02:54.902Z,14.10
2018-11-12T15:05:25.320Z,14.00
2018-11-12T15:07:55.719Z,14.00
2018-11-12T15:10:25.300Z,14.00
2018-11-12T15:12:54.659Z,14.00
2018-11-12T15:15:24.429Z,14.10
2018-11-12T15:17:53.819Z,13.90
2018-11-12T15:20:23.239Z,14.10
2018-11-12T15:22:52.696Z,14.10
2018-11-12T15:25:25.119Z,14.20
2018-11-12T15:27:54.482Z,14.30
2018-11-12T15:30:24.839Z,14.20
2018-11-12T15:32:55.139Z,14.20
2018-11-12T15:35:24.561Z,14.20
2018-11-12T15:37:53.908Z,14.20
2018-11-12T15:40:23.259Z,14.20
2018-11-12T15:42:52.660Z,14.30
2018-11-12T15:45:23.520Z,14.30
2018-11-12T15:47:52.876Z,14.30
2018-11-12T15:50:28.689Z,14.20
2018-11-12T15:52:58.032Z,14.20
2018-11-12T15:55:27.683Z,14.40
2018-11-12T15:57:57.118Z,14.40
2018-11-12T16:00:27.749Z,14.40
2018-11-12T16:02:57.111Z,14.20
2018-11-12T16:05:26.992Z,14.20
2018-11-12T16:07:56.068Z,14.30
2018-11-12T16:10:25.294Z,14.10
2018-11-12T16:12:54.574Z,14.20
2018-11-12T16:15:24.014Z,14.10
2018-11-12T16:17:53.255Z,14.10
2018-11-12T16:20:26.064Z,13.90
2018-11-12T16:22:56.107Z,14.10
2018-11-12T16:25:26.106Z,14.00
2018-11-12T16:27:55.630Z,14.00
2018-11-12T16:30:24.989Z,14.00
2018-11-12T16:32:54.333Z,13.80
2018-11-12T16:35:24.812Z,13.80
2018-11-12T16:37:55.213Z,13.70
2018-11-12T16:40:24.534Z,13.70
2018-11-12T16:42:54.415Z,13.80
2018-11-12T16:45:23.859Z,14.00
2018-11-12T16:47:53.232Z,13.80
2018-11-12T16:50:22.641Z,13.90
2018-11-12T16:52:52.075Z,13.90
2018-11-12T16:55:22.714Z,14.00
2018-11-12T16:57:52.096Z,14.00
2018-11-12T17:00:22.855Z,14.10
2018-11-12T17:02:52.296Z,14.10
2018-11-12T17:05:23.876Z,14.00
2018-11-12T17:07:53.544Z,14.20
2018-11-12T17:10:24.689Z,14.10
2018-11-12T17:12:54.090Z,14.10
2018-11-12T17:15:23.518Z,14.10
2018-11-12T17:17:52.830Z,14.00
2018-11-12T17:20:22.429Z,14.00
2018-11-12T17:22:51.852Z,14.00
2018-11-12T17:25:21.450Z,14.10
2018-11-12T17:27:50.689Z,14.00
2018-11-12T17:30:21.047Z,14.10
2018-11-12T17:32:50.690Z,14.10
2018-11-12T17:35:20.992Z,13.90
2018-11-12T17:37:50.992Z,13.90
2018-11-12T17:40:23.544Z,14.00
2018-11-12T17:42:54.068Z,14.00
2018-11-12T17:45:24.665Z,13.80
2018-11-12T17:47:55.085Z,13.90
2018-11-12T17:50:24.391Z,13.90
2018-11-12T17:52:53.655Z,14.00
2018-11-12T17:55:23.034Z,13.90
2018-11-12T17:57:52.412Z,13.90
2018-11-12T18:00:25.012Z,13.90
2018-11-12T18:02:54.272Z,13.90
2018-11-12T18:05:23.571Z,14.10
2018-11-12T18:07:52.967Z,14.10
2018-11-12T18:10:22.352Z,14.00
2018-11-12T18:12:51.671Z,14.00
2018-11-12T18:15:21.852Z,13.90
2018-11-12T18:17:51.493Z,13.90
2018-11-12T18:20:24.050Z,14.00
2018-11-12T18:22:54.095Z,13.90
2018-11-12T18:25:23.450Z,14.10
2018-11-12T18:27:53.251Z,14.00
2018-11-12T18:30:24.259Z,13.90
2018-11-12T18:32:54.791Z,13.90
2018-11-12T18:35:24.150Z,13.90
2018-11-12T18:37:53.552Z,13.80
2018-11-12T18:40:24.511Z,13.80
2018-11-12T18:42:53.851Z,13.80
2018-11-12T18:45:24.610Z,13.70
2018-11-12T18:47:54.370Z,13.90
2018-11-12T18:50:26.630Z,13.80
2018-11-12T18:52:55.970Z,13.90
2018-11-12T18:55:25.332Z,13.80
2018-11-12T18:57:55.111Z,13.70
2018-11-12T19:00:25.710Z,13.80
2018-11-12T19:02:55.532Z,13.80
2018-11-12T19:05:27.066Z,13.80
2018-11-12T19:07:57.906Z,13.70
2018-11-12T19:10:29.888Z,13.70
2018-11-12T19:13:00.557Z,13.60
2018-11-12T19:15:31.935Z,13.60
2018-11-12T19:18:05.712Z,13.70
2018-11-12T19:20:35.354Z,13.70
2018-11-12T19:23:05.232Z,13.60
2018-11-12T19:25:34.512Z,13.70
2018-11-12T19:28:03.952Z,13.60
2018-11-12T19:30:33.513Z,13.50
2018-11-12T19:33:02.833Z,13.80
2018-11-12T19:35:33.353Z,13.60
2018-11-12T19:38:02.872Z,13.70
2018-11-12T19:40:32.687Z,13.70
2018-11-12T19:43:02.032Z,13.60
2018-11-12T19:45:31.573Z,13.60
2018-11-12T19:48:00.872Z,13.70
2018-11-12T19:50:31.393Z,13.60
2018-11-12T19:53:01.095Z,13.60
2018-11-12T19:55:30.413Z,13.60
2018-11-12T19:57:59.748Z,13.60
2018-11-12T20:00:29.933Z,13.60
2018-11-12T20:03:00.777Z,13.60
2018-11-12T20:05:30.152Z,13.60
2018-11-12T20:07:59.511Z,13.60
2018-11-12T20:10:28.933Z,13.50
2018-11-12T20:12:58.317Z,13.50
2018-11-12T20:15:27.744Z,13.40
2018-11-12T20:17:57.106Z,13.40
2018-11-12T20:20:28.920Z,13.50
2018-11-12T20:22:58.311Z,13.50
2018-11-12T20:25:27.620Z,13.50
2018-11-12T20:27:57.724Z,13.40
2018-11-12T20:30:33.200Z,13.30
2018-11-12T20:33:03.183Z,13.30
2018-11-12T20:35:32.443Z,13.30
2018-11-12T20:38:01.764Z,13.10
2018-11-12T20:40:31.042Z,13.20
2018-11-12T20:43:00.421Z,13.20
2018-11-12T20:45:30.021Z,13.20
2018-11-12T20:47:59.409Z,13.20
2018-11-12T20:50:28.840Z,13.30
2018-11-12T20:52:58.281Z,13.20
2018-11-12T20:55:27.601Z,13.30
2018-11-12T20:57:57.161Z,13.30
2018-11-12T21:00:27.602Z,13.30
2018-11-12T21:02:57.004Z,13.30
2018-11-12T21:05:27.562Z,13.30
2018-11-12T21:07:58.102Z,13.30
2018-11-12T21:10:27.402Z,13.30
2018-11-12T21:12:56.721Z,13.30
2018-11-12T21:15:26.721Z,13.20
2018-11-12T21:17:56.042Z,13.30
2018-11-12T21:20:26.341Z,13.30
2018-11-12T21:22:55.922Z,13.20
2018-11-12T21:25:26.583Z,13.30
2018-11-12T21:27:55.902Z,13.30
2018-11-12T21:30:26.381Z,13.20
2018-11-12T21:32:55.741Z,13.30
2018-11-12T21:35:25.441Z,13.30
2018-11-12T21:37:56.482Z,13.20
2018-11-12T21:40:26.962Z,13.30
2018-11-12T21:42:57.143Z,13.20
2018-11-12T21:45:28.701Z,13.20
2018-11-12T21:47:58.141Z,13.40
2018-11-12T21:50:27.543Z,13.30
2018-11-12T21:52:56.942Z,13.20
2018-11-12T21:55:26.564Z,13.20
2018-11-12T21:57:55.861Z,13.20
2018-11-12T22:00:26.744Z,13.20
2018-11-12T22:02:58.441Z,13.20
2018-11-12T22:05:28.681Z,13.20
2018-11-12T22:07:58.001Z,13.20
2018-11-12T22:10:27.367Z,13.30
2018-11-12T22:12:56.744Z,13.20
2018-11-12T22:15:26.141Z,13.20
2018-11-12T22:17:55.482Z,13.20
2018-11-12T22:20:26.207Z,13.20
2018-11-12T22:22:55.504Z,13.20
2018-11-12T22:25:24.761Z,13.20
2018-11-12T22:27:54.284Z,13.30
2018-11-12T22:30:24.781Z,13.20
2018-11-12T22:32:54.963Z,13.10
2018-11-12T22:35:24.381Z,13.10
2018-11-12T22:37:53.722Z,13.10
2018-11-12T22:40:23.026Z,13.20
2018-11-12T22:42:52.923Z,13.10
2018-11-12T22:45:24.303Z,13.20
2018-11-12T22:47:53.823Z,13.10
2018-11-12T22:50:23.143Z,13.10
2018-11-12T22:52:52.688Z,13.10
2018-11-12T22:55:22.084Z,13.10
2018-11-12T22:57:51.483Z,13.10
2018-11-12T23:00:27.663Z,13.10
2018-11-12T23:02:57.825Z,13.10
2018-11-12T23:05:27.328Z,13.10
2018-11-12T23:07:56.744Z,13.10
2018-11-12T23:10:26.206Z,13.10
2018-11-12T23:12:55.544Z,13.00
2018-11-12T23:15:24.823Z,13.00
2018-11-12T23:17:54.184Z,13.00
2018-11-12T23:20:24.824Z,13.00
2018-11-12T23:22:54.223Z,13.00
2018-11-12T23:25:23.586Z,13.00
2018-11-12T23:27:53.608Z,13.00
2018-11-12T23:30:24.363Z,13.00
2018-11-12T23:32:53.703Z,13.00
2018-11-12T23:35:24.203Z,13.00
2018-11-12T23:37:53.543Z,12.90
2018-11-12T23:40:22.903Z,13.00
2018-11-12T23:42:52.147Z,13.00
2018-11-12T23:45:21.483Z,12.90
2018-11-12T23:47:50.843Z,12.80
2018-11-12T23:50:21.463Z,12.70
2018-11-12T23:52:51.985Z,12.70
2018-11-12T23:55:21.692Z,12.70
2018-11-12T23:57:51.463Z,12.70
